sensor_id;sensor_type;location;lat;lon;timestamp;temperature;humidity
56162;DHT22;42045;52.986;6.014;2022-08-18T00:05:24;18.30;99.90
56162;DHT22;42045;52.986;6.014;2022-08-18T00:07:50;18.30;99.90
56162;DHT22;42045;52.986;6.014;2022-08-18T00:10:17;18.30;99.90
56162;DHT22;42045;52.986;6.014;2022-08-18T00:12:43;18.40;99.90
56162;DHT22;42045;52.986;6.014;2022-08-18T00:15:12;18.40;99.90
56162;DHT22;42045;52.986;6.014;2022-08-18T00:17:40;18.40;99.90
56162;DHT22;42045;52.986;6.014;2022-08-18T00:20:12;18.40;99.90
56162;DHT22;42045;52.986;6.014;2022-08-18T00:22:38;18.40;99.90
56162;DHT22;42045;52.986;6.014;2022-08-18T00:25:06;18.40;99.90
56162;DHT22;42045;52.986;6.014;2022-08-18T00:27:35;18.50;99.90
56162;DHT22;42045;52.986;6.014;2022-08-18T00:30:10;18.40;99.90
56162;DHT22;42045;52.986;6.014;2022-08-18T00:32:48;18.40;99.90
56162;DHT22;42045;52.986;6.014;2022-08-18T00:35:27;18.40;99.90
56162;DHT22;42045;52.986;6.014;2022-08-18T00:37:57;18.50;99.90
56162;DHT22;42045;52.986;6.014;2022-08-18T00:40:27;18.50;99.90
56162;DHT22;42045;52.986;6.014;2022-08-18T00:42:57;18.40;99.90
56162;DHT22;42045;52.986;6.014;2022-08-18T00:45:30;18.40;99.90
56162;DHT22;42045;52.986;6.014;2022-08-18T00:47:58;18.40;99.90
56162;DHT22;42045;52.986;6.014;2022-08-18T00:50:46;18.40;99.90
56162;DHT22;42045;52.986;6.014;2022-08-18T00:56:23;18.50;99.90
56162;DHT22;42045;52.986;6.014;2022-08-18T00:58:55;18.50;99.90
56162;DHT22;42045;52.986;6.014;2022-08-18T01:01:26;18.50;99.90
56162;DHT22;42045;52.986;6.014;2022-08-18T01:04:03;18.50;99.90
56162;DHT22;42045;52.986;6.014;2022-08-18T01:07:04;18.40;99.90
56162;DHT22;42045;52.986;6.014;2022-08-18T01:09:31;18.40;99.90
56162;DHT22;42045;52.986;6.014;2022-08-18T01:11:57;18.40;99.90
56162;DHT22;42045;52.986;6.014;2022-08-18T01:14:23;18.50;99.90
56162;DHT22;42045;52.986;6.014;2022-08-18T01:16:50;18.50;99.90
56162;DHT22;42045;52.986;6.014;2022-08-18T01:19:38;18.40;99.90
56162;DHT22;42045;52.986;6.014;2022-08-18T01:25:19;18.40;99.90
56162;DHT22;42045;52.986;6.014;2022-08-18T01:28:05;18.30;99.90
56162;DHT22;42045;52.986;6.014;2022-08-18T01:30:45;18.50;99.90
56162;DHT22;42045;52.986;6.014;2022-08-18T01:33:11;18.50;99.90
56162;DHT22;42045;52.986;6.014;2022-08-18T01:35:38;18.40;99.90
56162;DHT22;42045;52.986;6.014;2022-08-18T01:38:06;18.40;99.90
56162;DHT22;42045;52.986;6.014;2022-08-18T01:40:32;18.30;99.90
56162;DHT22;42045;52.986;6.014;2022-08-18T01:42:58;18.40;99.90
56162;DHT22;42045;52.986;6.014;2022-08-18T01:45:28;18.40;99.90
56162;DHT22;42045;52.986;6.014;2022-08-18T01:47:57;18.40;99.90
56162;DHT22;42045;52.986;6.014;2022-08-18T01:50:24;18.30;99.90
56162;DHT22;42045;52.986;6.014;2022-08-18T01:52:51;18.30;99.90
56162;DHT22;42045;52.986;6.014;2022-08-18T01:55:19;18.30;99.90
56162;DHT22;42045;52.986;6.014;2022-08-18T01:57:46;18.30;99.90
56162;DHT22;42045;52.986;6.014;2022-08-18T02:00:14;18.40;99.90
56162;DHT22;42045;52.986;6.014;2022-08-18T02:02:42;18.30;99.90
56162;DHT22;42045;52.986;6.014;2022-08-18T02:05:29;18.30;99.90
56162;DHT22;42045;52.986;6.014;2022-08-18T02:07:56;18.30;99.90
56162;DHT22;42045;52.986;6.014;2022-08-18T02:10:22;18.30;99.90
56162;DHT22;42045;52.986;6.014;2022-08-18T02:12:49;18.30;99.90
56162;DHT22;42045;52.986;6.014;2022-08-18T02:15:15;18.40;99.90
56162;DHT22;42045;52.986;6.014;2022-08-18T02:17:44;18.30;99.90
56162;DHT22;42045;52.986;6.014;2022-08-18T02:20:13;18.30;99.90
56162;DHT22;42045;52.986;6.014;2022-08-18T02:22:41;18.30;99.90
56162;DHT22;42045;52.986;6.014;2022-08-18T02:25:08;18.30;99.90
56162;DHT22;42045;52.986;6.014;2022-08-18T02:27:34;18.30;99.90
56162;DHT22;42045;52.986;6.014;2022-08-18T02:30:05;18.30;99.90
56162;DHT22;42045;52.986;6.014;2022-08-18T02:32:32;18.30;99.90
56162;DHT22;42045;52.986;6.014;2022-08-18T02:34:58;18.30;99.90
56162;DHT22;42045;52.986;6.014;2022-08-18T02:37:25;18.40;99.90
56162;DHT22;42045;52.986;6.014;2022-08-18T02:39:52;18.40;99.90
56162;DHT22;42045;52.986;6.014;2022-08-18T02:42:18;18.30;99.90
56162;DHT22;42045;52.986;6.014;2022-08-18T02:44:44;18.30;99.90
56162;DHT22;42045;52.986;6.014;2022-08-18T02:47:10;18.30;99.90
56162;DHT22;42045;52.986;6.014;2022-08-18T02:49:41;18.30;99.90
56162;DHT22;42045;52.986;6.014;2022-08-18T02:52:08;18.30;99.90
56162;DHT22;42045;52.986;6.014;2022-08-18T02:54:34;18.30;99.90
56162;DHT22;42045;52.986;6.014;2022-08-18T02:57:06;18.30;99.90
56162;DHT22;42045;52.986;6.014;2022-08-18T02:59:33;18.30;99.90
56162;DHT22;42045;52.986;6.014;2022-08-18T03:01:59;18.30;99.90
56162;DHT22;42045;52.986;6.014;2022-08-18T03:04:29;18.20;99.90
56162;DHT22;42045;52.986;6.014;2022-08-18T03:06:57;18.20;99.90
56162;DHT22;42045;52.986;6.014;2022-08-18T03:09:23;18.30;99.90
56162;DHT22;42045;52.986;6.014;2022-08-18T03:11:49;18.30;99.90
56162;DHT22;42045;52.986;6.014;2022-08-18T03:14:17;18.30;99.90
56162;DHT22;42045;52.986;6.014;2022-08-18T03:16:46;18.30;99.90
56162;DHT22;42045;52.986;6.014;2022-08-18T03:19:13;18.30;99.90
56162;DHT22;42045;52.986;6.014;2022-08-18T03:21:43;18.30;99.90
56162;DHT22;42045;52.986;6.014;2022-08-18T03:24:10;18.30;99.90
56162;DHT22;42045;52.986;6.014;2022-08-18T03:26:43;18.40;99.90
56162;DHT22;42045;52.986;6.014;2022-08-18T03:29:10;18.30;99.90
56162;DHT22;42045;52.986;6.014;2022-08-18T03:31:37;18.30;99.90
56162;DHT22;42045;52.986;6.014;2022-08-18T03:34:05;18.30;99.90
56162;DHT22;42045;52.986;6.014;2022-08-18T03:36:35;18.30;99.90
56162;DHT22;42045;52.986;6.014;2022-08-18T03:39:07;18.30;99.90
56162;DHT22;42045;52.986;6.014;2022-08-18T03:41:35;18.30;99.90
56162;DHT22;42045;52.986;6.014;2022-08-18T03:44:02;18.30;99.90
56162;DHT22;42045;52.986;6.014;2022-08-18T03:46:28;18.40;99.90
56162;DHT22;42045;52.986;6.014;2022-08-18T03:48:56;18.40;99.90
56162;DHT22;42045;52.986;6.014;2022-08-18T03:51:24;18.30;99.90
56162;DHT22;42045;52.986;6.014;2022-08-18T03:53:53;18.40;99.90
56162;DHT22;42045;52.986;6.014;2022-08-18T03:56:22;18.40;99.90
56162;DHT22;42045;52.986;6.014;2022-08-18T03:58:52;18.40;99.90
56162;DHT22;42045;52.986;6.014;2022-08-18T04:01:21;18.40;99.90
56162;DHT22;42045;52.986;6.014;2022-08-18T04:03:51;18.30;99.90
56162;DHT22;42045;52.986;6.014;2022-08-18T04:06:22;18.40;99.90
56162;DHT22;42045;52.986;6.014;2022-08-18T04:08:54;18.40;99.90
56162;DHT22;42045;52.986;6.014;2022-08-18T04:11:21;18.40;99.90
56162;DHT22;42045;52.986;6.014;2022-08-18T04:13:48;18.30;99.90
56162;DHT22;42045;52.986;6.014;2022-08-18T04:16:15;18.30;99.90
56162;DHT22;42045;52.986;6.014;2022-08-18T04:18:41;18.30;99.90
56162;DHT22;42045;52.986;6.014;2022-08-18T04:21:10;18.40;99.90
56162;DHT22;42045;52.986;6.014;2022-08-18T04:23:39;18.30;99.90
56162;DHT22;42045;52.986;6.014;2022-08-18T04:26:07;18.40;99.90
56162;DHT22;42045;52.986;6.014;2022-08-18T04:28:34;18.40;99.90
56162;DHT22;42045;52.986;6.014;2022-08-18T04:31:06;18.40;99.90
56162;DHT22;42045;52.986;6.014;2022-08-18T04:33:33;18.40;99.90
56162;DHT22;42045;52.986;6.014;2022-08-18T04:36:07;18.50;99.90
56162;DHT22;42045;52.986;6.014;2022-08-18T04:38:33;18.40;99.90
56162;DHT22;42045;52.986;6.014;2022-08-18T04:41:00;18.40;99.90
56162;DHT22;42045;52.986;6.014;2022-08-18T04:43:26;18.30;99.90
56162;DHT22;42045;52.986;6.014;2022-08-18T04:45:52;18.30;99.90
56162;DHT22;42045;52.986;6.014;2022-08-18T04:48:19;18.40;99.90
56162;DHT22;42045;52.986;6.014;2022-08-18T04:50:45;18.40;99.90
56162;DHT22;42045;52.986;6.014;2022-08-18T04:53:11;18.30;99.90
56162;DHT22;42045;52.986;6.014;2022-08-18T04:55:56;18.30;99.90
56162;DHT22;42045;52.986;6.014;2022-08-18T04:58:23;18.30;99.90
56162;DHT22;42045;52.986;6.014;2022-08-18T05:00:57;18.30;99.90
56162;DHT22;42045;52.986;6.014;2022-08-18T05:03:38;18.40;99.90
56162;DHT22;42045;52.986;6.014;2022-08-18T05:06:06;18.30;99.90
56162;DHT22;42045;52.986;6.014;2022-08-18T05:08:32;18.50;99.90
56162;DHT22;42045;52.986;6.014;2022-08-18T05:10:59;18.40;99.90
56162;DHT22;42045;52.986;6.014;2022-08-18T05:13:28;18.50;99.90
56162;DHT22;42045;52.986;6.014;2022-08-18T05:15:56;18.40;99.90
56162;DHT22;42045;52.986;6.014;2022-08-18T05:18:25;18.40;99.90
56162;DHT22;42045;52.986;6.014;2022-08-18T05:20:52;18.40;99.90
56162;DHT22;42045;52.986;6.014;2022-08-18T05:23:19;18.50;99.90
56162;DHT22;42045;52.986;6.014;2022-08-18T05:25:45;18.40;99.90
56162;DHT22;42045;52.986;6.014;2022-08-18T05:28:12;18.50;99.90
56162;DHT22;42045;52.986;6.014;2022-08-18T05:30:40;18.50;99.90
56162;DHT22;42045;52.986;6.014;2022-08-18T05:33:07;18.50;99.90
56162;DHT22;42045;52.986;6.014;2022-08-18T05:35:45;18.60;99.90
56162;DHT22;42045;52.986;6.014;2022-08-18T05:38:38;18.60;99.90
56162;DHT22;42045;52.986;6.014;2022-08-18T05:41:23;18.50;99.90
56162;DHT22;42045;52.986;6.014;2022-08-18T05:43:51;18.70;99.90
56162;DHT22;42045;52.986;6.014;2022-08-18T05:46:21;18.60;99.90
56162;DHT22;42045;52.986;6.014;2022-08-18T05:48:49;18.70;99.90
56162;DHT22;42045;52.986;6.014;2022-08-18T05:51:30;18.70;99.90
56162;DHT22;42045;52.986;6.014;2022-08-18T05:53:58;18.70;99.90
56162;DHT22;42045;52.986;6.014;2022-08-18T05:56:46;18.80;99.90
56162;DHT22;42045;52.986;6.014;2022-08-18T05:59:25;18.80;99.90
56162;DHT22;42045;52.986;6.014;2022-08-18T06:07:41;18.90;99.90
56162;DHT22;42045;52.986;6.014;2022-08-18T06:10:14;18.90;99.90
56162;DHT22;42045;52.986;6.014;2022-08-18T06:12:44;19.10;99.90
56162;DHT22;42045;52.986;6.014;2022-08-18T06:15:12;19.20;99.90
56162;DHT22;42045;52.986;6.014;2022-08-18T06:26:33;19.80;99.90
56162;DHT22;42045;52.986;6.014;2022-08-18T06:35:09;20.40;99.90
56162;DHT22;42045;52.986;6.014;2022-08-18T06:40:48;20.90;99.90
56162;DHT22;42045;52.986;6.014;2022-08-18T06:43:16;20.90;99.90
56162;DHT22;42045;52.986;6.014;2022-08-18T06:45:44;21.00;99.90
56162;DHT22;42045;52.986;6.014;2022-08-18T06:48:50;21.00;99.90
56162;DHT22;42045;52.986;6.014;2022-08-18T06:51:20;20.80;99.90
56162;DHT22;42045;52.986;6.014;2022-08-18T06:59:32;20.80;99.90
56162;DHT22;42045;52.986;6.014;2022-08-18T07:04:39;20.60;99.90
56162;DHT22;42045;52.986;6.014;2022-08-18T07:07:34;20.50;99.90
56162;DHT22;42045;52.986;6.014;2022-08-18T07:10:02;20.70;99.90
56162;DHT22;42045;52.986;6.014;2022-08-18T07:12:29;20.90;99.90
56162;DHT22;42045;52.986;6.014;2022-08-18T07:15:00;21.00;99.90
56162;DHT22;42045;52.986;6.014;2022-08-18T07:17:31;21.00;99.90
56162;DHT22;42045;52.986;6.014;2022-08-18T07:23:25;20.70;99.90
56162;DHT22;42045;52.986;6.014;2022-08-18T07:26:16;20.20;99.90
56162;DHT22;42045;52.986;6.014;2022-08-18T07:28:50;19.90;99.90
56162;DHT22;42045;52.986;6.014;2022-08-18T07:34:29;19.70;99.90
56162;DHT22;42045;52.986;6.014;2022-08-18T07:37:11;19.60;99.90
56162;DHT22;42045;52.986;6.014;2022-08-18T07:43:15;19.50;99.90
56162;DHT22;42045;52.986;6.014;2022-08-18T07:45:44;19.50;99.90
56162;DHT22;42045;52.986;6.014;2022-08-18T07:48:15;19.60;99.90
56162;DHT22;42045;52.986;6.014;2022-08-18T07:54:09;19.50;99.90
56162;DHT22;42045;52.986;6.014;2022-08-18T07:59:39;19.60;99.90
56162;DHT22;42045;52.986;6.014;2022-08-18T08:02:18;19.60;99.90
56162;DHT22;42045;52.986;6.014;2022-08-18T08:07:28;19.90;99.90
56162;DHT22;42045;52.986;6.014;2022-08-18T08:13:00;20.20;99.90
56162;DHT22;42045;52.986;6.014;2022-08-18T08:16:00;20.50;99.90
56162;DHT22;42045;52.986;6.014;2022-08-18T08:18:53;20.80;99.90
56162;DHT22;42045;52.986;6.014;2022-08-18T08:21:28;21.00;99.90
56162;DHT22;42045;52.986;6.014;2022-08-18T08:30:19;21.50;99.90
56162;DHT22;42045;52.986;6.014;2022-08-18T08:38:53;22.00;99.90
56162;DHT22;42045;52.986;6.014;2022-08-18T08:44:48;22.60;99.90
56162;DHT22;42045;52.986;6.014;2022-08-18T08:47:25;22.70;99.90
56162;DHT22;42045;52.986;6.014;2022-08-18T08:49:57;22.70;99.90
56162;DHT22;42045;52.986;6.014;2022-08-18T08:55:33;22.70;99.90
56162;DHT22;42045;52.986;6.014;2022-08-18T08:58:18;22.90;99.90
56162;DHT22;42045;52.986;6.014;2022-08-18T09:00:47;22.90;99.90
56162;DHT22;42045;52.986;6.014;2022-08-18T09:09:03;22.40;99.90
56162;DHT22;42045;52.986;6.014;2022-08-18T09:17:27;21.70;99.90
56162;DHT22;42045;52.986;6.014;2022-08-18T09:23:12;21.60;99.90
56162;DHT22;42045;52.986;6.014;2022-08-18T09:38:52;21.90;99.90
56162;DHT22;42045;52.986;6.014;2022-08-18T09:41:55;22.00;99.90
56162;DHT22;42045;52.986;6.014;2022-08-18T09:47:07;22.40;99.90
56162;DHT22;42045;52.986;6.014;2022-08-18T09:57:28;22.10;99.90
56162;DHT22;42045;52.986;6.014;2022-08-18T10:05:27;22.00;99.90
56162;DHT22;42045;52.986;6.014;2022-08-18T10:13:40;21.90;99.90
56162;DHT22;42045;52.986;6.014;2022-08-18T10:16:14;21.90;99.90
56162;DHT22;42045;52.986;6.014;2022-08-18T10:22:06;22.30;99.90
56162;DHT22;42045;52.986;6.014;2022-08-18T10:27:10;22.60;99.90
56162;DHT22;42045;52.986;6.014;2022-08-18T10:29:45;22.50;99.90
56162;DHT22;42045;52.986;6.014;2022-08-18T10:42:37;22.60;99.90
56162;DHT22;42045;52.986;6.014;2022-08-18T10:50:38;23.10;99.90
56162;DHT22;42045;52.986;6.014;2022-08-18T10:53:18;23.00;99.90
56162;DHT22;42045;52.986;6.014;2022-08-18T10:55:59;23.20;99.90
56162;DHT22;42045;52.986;6.014;2022-08-18T11:04:08;23.80;99.90
56162;DHT22;42045;52.986;6.014;2022-08-18T11:06:46;23.90;99.90
56162;DHT22;42045;52.986;6.014;2022-08-18T11:09:26;24.20;99.90
56162;DHT22;42045;52.986;6.014;2022-08-18T11:11:54;24.40;99.90
56162;DHT22;42045;52.986;6.014;2022-08-18T11:17:32;23.90;99.90
56162;DHT22;42045;52.986;6.014;2022-08-18T11:19:57;23.50;99.90
56162;DHT22;42045;52.986;6.014;2022-08-18T11:22:28;23.60;99.90
56162;DHT22;42045;52.986;6.014;2022-08-18T11:25:01;23.70;99.90
56162;DHT22;42045;52.986;6.014;2022-08-18T11:27:35;23.80;99.90
56162;DHT22;42045;52.986;6.014;2022-08-18T11:30:10;23.90;99.90
56162;DHT22;42045;52.986;6.014;2022-08-18T11:32:39;24.00;99.90
56162;DHT22;42045;52.986;6.014;2022-08-18T11:37:42;24.20;99.90
56162;DHT22;42045;52.986;6.014;2022-08-18T11:40:33;23.90;99.90
56162;DHT22;42045;52.986;6.014;2022-08-18T11:43:16;23.90;99.90
56162;DHT22;42045;52.986;6.014;2022-08-18T11:48:37;23.90;99.90
56162;DHT22;42045;52.986;6.014;2022-08-18T11:56:16;23.70;99.90
56162;DHT22;42045;52.986;6.014;2022-08-18T11:58:52;23.80;99.90
56162;DHT22;42045;52.986;6.014;2022-08-18T12:11:56;24.20;99.90
56162;DHT22;42045;52.986;6.014;2022-08-18T12:14:26;24.30;99.90
56162;DHT22;42045;52.986;6.014;2022-08-18T12:16:53;24.00;99.90
56162;DHT22;42045;52.986;6.014;2022-08-18T12:19:20;23.90;99.90
56162;DHT22;42045;52.986;6.014;2022-08-18T12:21:53;23.80;99.90
56162;DHT22;42045;52.986;6.014;2022-08-18T12:24:28;23.70;99.90
56162;DHT22;42045;52.986;6.014;2022-08-18T12:26:56;23.70;99.90
56162;DHT22;42045;52.986;6.014;2022-08-18T12:29:24;23.70;99.90
56162;DHT22;42045;52.986;6.014;2022-08-18T12:31:53;23.90;99.90
56162;DHT22;42045;52.986;6.014;2022-08-18T12:34:21;24.00;99.90
56162;DHT22;42045;52.986;6.014;2022-08-18T12:36:53;24.00;99.90
56162;DHT22;42045;52.986;6.014;2022-08-18T12:39:20;24.00;99.90
56162;DHT22;42045;52.986;6.014;2022-08-18T12:41:46;24.00;99.90
56162;DHT22;42045;52.986;6.014;2022-08-18T12:44:12;24.20;99.90
56162;DHT22;42045;52.986;6.014;2022-08-18T12:46:39;24.10;99.90
56162;DHT22;42045;52.986;6.014;2022-08-18T12:49:09;24.10;99.90
56162;DHT22;42045;52.986;6.014;2022-08-18T12:51:37;24.20;99.90
56162;DHT22;42045;52.986;6.014;2022-08-18T12:54:06;24.20;99.90
56162;DHT22;42045;52.986;6.014;2022-08-18T12:56:32;24.40;99.90
56162;DHT22;42045;52.986;6.014;2022-08-18T12:59:04;24.40;99.90
56162;DHT22;42045;52.986;6.014;2022-08-18T13:01:30;24.60;99.90
56162;DHT22;42045;52.986;6.014;2022-08-18T13:03:57;24.50;99.90
56162;DHT22;42045;52.986;6.014;2022-08-18T13:06:24;24.20;99.90
56162;DHT22;42045;52.986;6.014;2022-08-18T13:08:52;24.10;99.90
56162;DHT22;42045;52.986;6.014;2022-08-18T13:11:21;24.00;99.90
56162;DHT22;42045;52.986;6.014;2022-08-18T13:13:48;24.10;99.90
56162;DHT22;42045;52.986;6.014;2022-08-18T13:16:15;24.10;99.90
56162;DHT22;42045;52.986;6.014;2022-08-18T13:18:42;24.20;99.90
56162;DHT22;42045;52.986;6.014;2022-08-18T13:21:11;24.40;99.90
56162;DHT22;42045;52.986;6.014;2022-08-18T13:23:38;24.50;99.90
56162;DHT22;42045;52.986;6.014;2022-08-18T13:26:07;24.60;99.90
56162;DHT22;42045;52.986;6.014;2022-08-18T13:28:35;24.70;99.90
56162;DHT22;42045;52.986;6.014;2022-08-18T13:31:02;24.60;99.90
56162;DHT22;42045;52.986;6.014;2022-08-18T13:33:29;24.60;99.90
56162;DHT22;42045;52.986;6.014;2022-08-18T13:35:58;24.70;99.90
56162;DHT22;42045;52.986;6.014;2022-08-18T13:38:24;24.80;99.90
56162;DHT22;42045;52.986;6.014;2022-08-18T13:40:52;24.70;99.90
56162;DHT22;42045;52.986;6.014;2022-08-18T13:43:23;24.50;99.90
56162;DHT22;42045;52.986;6.014;2022-08-18T13:45:51;24.50;99.90
56162;DHT22;42045;52.986;6.014;2022-08-18T13:48:17;24.40;99.90
56162;DHT22;42045;52.986;6.014;2022-08-18T13:50:44;24.50;99.90
56162;DHT22;42045;52.986;6.014;2022-08-18T13:53:15;24.50;99.90
56162;DHT22;42045;52.986;6.014;2022-08-18T13:55:45;24.60;99.90
56162;DHT22;42045;52.986;6.014;2022-08-18T13:58:11;24.60;99.90
56162;DHT22;42045;52.986;6.014;2022-08-18T14:00:38;24.50;99.90
56162;DHT22;42045;52.986;6.014;2022-08-18T14:03:06;24.40;99.90
56162;DHT22;42045;52.986;6.014;2022-08-18T14:05:33;24.20;99.90
56162;DHT22;42045;52.986;6.014;2022-08-18T14:08:01;24.10;99.90
56162;DHT22;42045;52.986;6.014;2022-08-18T14:10:27;24.10;99.90
56162;DHT22;42045;52.986;6.014;2022-08-18T14:12:56;24.10;99.90
56162;DHT22;42045;52.986;6.014;2022-08-18T14:15:24;24.20;99.90
56162;DHT22;42045;52.986;6.014;2022-08-18T14:17:50;24.10;99.90
56162;DHT22;42045;52.986;6.014;2022-08-18T14:20:18;24.20;99.90
56162;DHT22;42045;52.986;6.014;2022-08-18T14:23:04;24.30;99.90
56162;DHT22;42045;52.986;6.014;2022-08-18T14:25:49;24.30;99.90
56162;DHT22;42045;52.986;6.014;2022-08-18T14:28:38;24.20;99.90
56162;DHT22;42045;52.986;6.014;2022-08-18T14:31:05;24.30;99.90
56162;DHT22;42045;52.986;6.014;2022-08-18T14:33:31;24.40;99.90
56162;DHT22;42045;52.986;6.014;2022-08-18T14:35:58;24.20;99.90
56162;DHT22;42045;52.986;6.014;2022-08-18T14:38:24;24.30;99.90
56162;DHT22;42045;52.986;6.014;2022-08-18T14:40:50;24.30;99.90
56162;DHT22;42045;52.986;6.014;2022-08-18T14:43:18;24.20;99.90
56162;DHT22;42045;52.986;6.014;2022-08-18T14:45:48;24.20;99.90
56162;DHT22;42045;52.986;6.014;2022-08-18T14:48:16;24.10;99.90
56162;DHT22;42045;52.986;6.014;2022-08-18T14:50:45;24.10;99.90
56162;DHT22;42045;52.986;6.014;2022-08-18T14:53:14;24.10;99.90
56162;DHT22;42045;52.986;6.014;2022-08-18T14:55:40;23.90;99.90
56162;DHT22;42045;52.986;6.014;2022-08-18T14:58:08;23.80;99.90
56162;DHT22;42045;52.986;6.014;2022-08-18T15:00:34;23.70;99.90
56162;DHT22;42045;52.986;6.014;2022-08-18T15:03:00;23.70;99.90
56162;DHT22;42045;52.986;6.014;2022-08-18T15:05:27;23.60;99.90
56162;DHT22;42045;52.986;6.014;2022-08-18T15:07:58;23.50;99.90
56162;DHT22;42045;52.986;6.014;2022-08-18T15:10:24;23.60;99.90
56162;DHT22;42045;52.986;6.014;2022-08-18T15:12:50;23.60;99.90
56162;DHT22;42045;52.986;6.014;2022-08-18T15:15:17;23.80;99.90
56162;DHT22;42045;52.986;6.014;2022-08-18T15:17:43;23.70;99.90
56162;DHT22;42045;52.986;6.014;2022-08-18T15:20:10;23.80;99.90
56162;DHT22;42045;52.986;6.014;2022-08-18T15:22:39;23.80;99.90
56162;DHT22;42045;52.986;6.014;2022-08-18T15:25:24;23.80;99.90
56162;DHT22;42045;52.986;6.014;2022-08-18T15:28:11;23.90;99.90
56162;DHT22;42045;52.986;6.014;2022-08-18T15:30:38;23.90;99.90
56162;DHT22;42045;52.986;6.014;2022-08-18T15:33:05;23.90;99.90
56162;DHT22;42045;52.986;6.014;2022-08-18T15:35:32;23.90;99.90
56162;DHT22;42045;52.986;6.014;2022-08-18T15:37:59;23.90;99.90
56162;DHT22;42045;52.986;6.014;2022-08-18T15:40:26;23.90;99.90
56162;DHT22;42045;52.986;6.014;2022-08-18T15:42:56;23.80;99.90
56162;DHT22;42045;52.986;6.014;2022-08-18T15:45:25;23.80;99.90
56162;DHT22;42045;52.986;6.014;2022-08-18T15:47:52;23.80;99.90
56162;DHT22;42045;52.986;6.014;2022-08-18T15:50:20;23.70;99.90
56162;DHT22;42045;52.986;6.014;2022-08-18T15:52:51;23.70;99.90
56162;DHT22;42045;52.986;6.014;2022-08-18T15:55:20;23.70;99.90
56162;DHT22;42045;52.986;6.014;2022-08-18T15:57:48;23.70;99.90
56162;DHT22;42045;52.986;6.014;2022-08-18T16:00:16;23.70;99.90
56162;DHT22;42045;52.986;6.014;2022-08-18T16:02:52;23.70;99.90
56162;DHT22;42045;52.986;6.014;2022-08-18T16:05:27;23.60;99.90
56162;DHT22;42045;52.986;6.014;2022-08-18T16:07:55;23.60;99.90
56162;DHT22;42045;52.986;6.014;2022-08-18T16:10:26;23.70;99.90
56162;DHT22;42045;52.986;6.014;2022-08-18T16:12:53;23.50;99.90
56162;DHT22;42045;52.986;6.014;2022-08-18T16:15:22;23.50;99.90
56162;DHT22;42045;52.986;6.014;2022-08-18T16:17:51;23.50;99.90
56162;DHT22;42045;52.986;6.014;2022-08-18T16:20:18;23.30;99.90
56162;DHT22;42045;52.986;6.014;2022-08-18T16:22:46;23.20;99.90
56162;DHT22;42045;52.986;6.014;2022-08-18T16:25:12;23.20;99.90
56162;DHT22;42045;52.986;6.014;2022-08-18T16:27:40;23.20;99.90
56162;DHT22;42045;52.986;6.014;2022-08-18T16:30:12;23.10;99.90
56162;DHT22;42045;52.986;6.014;2022-08-18T16:32:39;23.10;99.90
56162;DHT22;42045;52.986;6.014;2022-08-18T16:35:07;22.90;99.90
56162;DHT22;42045;52.986;6.014;2022-08-18T16:37:33;22.90;99.90
56162;DHT22;42045;52.986;6.014;2022-08-18T16:39:59;22.90;99.90
56162;DHT22;42045;52.986;6.014;2022-08-18T16:42:25;22.80;99.90
56162;DHT22;42045;52.986;6.014;2022-08-18T16:45:02;22.70;99.90
56162;DHT22;42045;52.986;6.014;2022-08-18T16:47:31;22.60;99.90
56162;DHT22;42045;52.986;6.014;2022-08-18T16:49:57;22.60;99.90
56162;DHT22;42045;52.986;6.014;2022-08-18T16:52:23;22.50;99.90
56162;DHT22;42045;52.986;6.014;2022-08-18T16:54:50;22.60;99.90
56162;DHT22;42045;52.986;6.014;2022-08-18T16:57:16;22.60;99.90
56162;DHT22;42045;52.986;6.014;2022-08-18T17:00:04;22.60;99.90
56162;DHT22;42045;52.986;6.014;2022-08-18T17:02:52;22.50;99.90
56162;DHT22;42045;52.986;6.014;2022-08-18T17:05:37;22.50;99.90
56162;DHT22;42045;52.986;6.014;2022-08-18T17:08:04;22.50;99.90
56162;DHT22;42045;52.986;6.014;2022-08-18T17:10:31;22.50;99.90
56162;DHT22;42045;52.986;6.014;2022-08-18T17:13:05;22.40;99.90
56162;DHT22;42045;52.986;6.014;2022-08-18T17:15:31;22.30;99.90
56162;DHT22;42045;52.986;6.014;2022-08-18T17:17:57;22.30;99.90
56162;DHT22;42045;52.986;6.014;2022-08-18T17:20:26;22.20;99.90
56162;DHT22;42045;52.986;6.014;2022-08-18T17:22:52;22.10;99.90
56162;DHT22;42045;52.986;6.014;2022-08-18T17:25:21;22.00;99.90
56162;DHT22;42045;52.986;6.014;2022-08-18T17:27:49;22.00;99.90
56162;DHT22;42045;52.986;6.014;2022-08-18T17:30:21;22.00;99.90
56162;DHT22;42045;52.986;6.014;2022-08-18T17:33:02;21.80;99.90
56162;DHT22;42045;52.986;6.014;2022-08-18T17:35:40;21.80;99.90
56162;DHT22;42045;52.986;6.014;2022-08-18T17:40:46;21.50;99.90
56162;DHT22;42045;52.986;6.014;2022-08-18T17:43:19;21.50;99.90
56162;DHT22;42045;52.986;6.014;2022-08-18T17:45:52;21.50;99.90
56162;DHT22;42045;52.986;6.014;2022-08-18T17:48:51;21.30;99.90
56162;DHT22;42045;52.986;6.014;2022-08-18T17:51:44;21.30;99.90
56162;DHT22;42045;52.986;6.014;2022-08-18T17:54:28;21.30;99.90
56162;DHT22;42045;52.986;6.014;2022-08-18T17:57:04;21.20;99.90
56162;DHT22;42045;52.986;6.014;2022-08-18T18:00:10;21.10;99.90
56162;DHT22;42045;52.986;6.014;2022-08-18T18:02:39;21.00;99.90
56162;DHT22;42045;52.986;6.014;2022-08-18T18:05:08;21.00;99.90
56162;DHT22;42045;52.986;6.014;2022-08-18T18:07:56;20.90;99.90
56162;DHT22;42045;52.986;6.014;2022-08-18T18:10:44;20.90;99.90
56162;DHT22;42045;52.986;6.014;2022-08-18T18:13:24;20.80;99.90
56162;DHT22;42045;52.986;6.014;2022-08-18T18:16:26;20.70;99.90
56162;DHT22;42045;52.986;6.014;2022-08-18T18:19:05;20.70;99.90
56162;DHT22;42045;52.986;6.014;2022-08-18T18:21:38;20.60;99.90
56162;DHT22;42045;52.986;6.014;2022-08-18T18:26:35;20.40;99.90
56162;DHT22;42045;52.986;6.014;2022-08-18T18:29:21;20.20;99.90
56162;DHT22;42045;52.986;6.014;2022-08-18T18:31:56;20.10;99.90
56162;DHT22;42045;52.986;6.014;2022-08-18T18:34:33;20.00;99.90
56162;DHT22;42045;52.986;6.014;2022-08-18T18:37:01;19.90;99.90
56162;DHT22;42045;52.986;6.014;2022-08-18T18:39:33;19.80;99.90
56162;DHT22;42045;52.986;6.014;2022-08-18T18:42:16;19.70;99.90
56162;DHT22;42045;52.986;6.014;2022-08-18T18:45:05;19.60;99.90
56162;DHT22;42045;52.986;6.014;2022-08-18T18:47:46;19.40;99.90
56162;DHT22;42045;52.986;6.014;2022-08-18T18:50:41;19.30;99.90
56162;DHT22;42045;52.986;6.014;2022-08-18T18:56:18;19.10;99.90
56162;DHT22;42045;52.986;6.014;2022-08-18T18:58:57;19.00;99.90
56162;DHT22;42045;52.986;6.014;2022-08-18T19:01:59;18.90;99.90
56162;DHT22;42045;52.986;6.014;2022-08-18T19:10:45;18.70;99.90
56162;DHT22;42045;52.986;6.014;2022-08-18T19:13:20;18.60;99.90
56162;DHT22;42045;52.986;6.014;2022-08-18T19:15:54;18.60;99.90